Time;durP1;ratioP1;P1;durP2;ratioP2;P2;SDS_P1;SDS_P2;PMS_P1;PMS_P2;Temp;Humidity;BMP_temperature;BMP_pressure;BME280_temperature;BME280_humidity;BME280_pressure;Samples;Min_cycle;Max_cycle;Signal;HPM_P1;HPM_P2
2022/04/29 00:02:07;;;;;;;161.13;152.50;;;;;;;8.46;100.00;102987.13;10497591;28;20048;-59
2022/04/29 00:07:11;;;;;;;166.82;157.90;;;;;;;8.44;98.66;102999.31;10497561;28;20131;-58
2022/04/29 00:12:13;;;;;;;152.60;144.85;;;;;;;8.34;100.00;102993.34;10496851;28;20399;-58
2022/04/29 00:17:16;;;;;;;135.43;128.38;;;;;;;8.31;99.76;102988.16;10496701;28;20475;-59
2022/04/29 00:22:19;;;;;;;114.82;108.47;;;;;;;8.00;100.00;102981.56;10497284;28;20063;-58
2022/04/29 00:27:21;;;;;;;113.15;106.95;;;;;;;8.04;100.00;102981.53;10496493;28;20476;-59
2022/04/29 00:32:24;;;;;;;104.10;98.65;;;;;;;8.19;100.00;102968.31;10503622;28;20115;-58
2022/04/29 00:37:26;;;;;;;104.13;98.35;;;;;;;8.14;100.00;102967.50;10504539;28;20051;-58
2022/04/29 00:42:30;;;;;;;73.38;69.03;;;;;;;7.70;100.00;102967.13;10503938;28;20056;-58
2022/04/29 00:47:32;;;;;;;84.80;80.10;;;;;;;8.02;100.00;102965.91;10503857;28;20044;-58
2022/04/29 00:52:36;;;;;;;81.97;77.05;;;;;;;7.92;100.00;102966.91;10503164;28;20052;-58
2022/04/29 00:57:50;;;;;;;64.18;60.38;;;;;;;7.74;100.00;102967.97;10502450;28;20055;-58
2022/04/29 01:02:54;;;;;;;75.70;71.53;;;;;;;7.95;100.00;102954.69;10503409;28;20056;-58
2022/04/29 01:07:57;;;;;;;65.00;61.15;;;;;;;7.62;100.00;102961.13;10502474;28;20384;-58
2022/04/29 01:13:01;;;;;;;57.67;54.03;;;;;;;7.88;100.00;102950.41;10501207;28;20407;-58
2022/04/29 01:18:06;;;;;;;45.80;42.63;;;;;;;7.44;100.00;102950.00;10502134;28;20044;-59
2022/04/29 01:23:11;;;;;;;44.97;41.63;;;;;;;7.44;100.00;102950.00;10502617;28;20119;-58
2022/04/29 01:28:13;;;;;;;34.25;31.08;;;;;;;7.44;100.00;102951.75;10502322;28;20044;-58
2022/04/29 01:33:16;;;;;;;33.13;30.15;;;;;;;7.38;100.00;102941.38;10502210;28;20053;-59
2022/04/29 01:38:18;;;;;;;29.55;27.02;;;;;;;7.68;100.00;102941.94;10501991;28;20041;-58
2022/04/29 01:43:20;;;;;;;25.23;23.25;;;;;;;7.75;100.00;102930.56;10500233;28;20057;-58
2022/04/29 01:48:24;;;;;;;25.05;22.85;;;;;;;7.49;100.00;102933.47;10500804;28;20159;-59
2022/04/29 01:53:27;;;;;;;26.50;24.35;;;;;;;7.56;100.00;102924.69;10500735;28;20074;-58
2022/04/29 01:58:29;;;;;;;25.73;23.52;;;;;;;7.55;100.00;102923.84;10499844;28;20048;-58
2022/04/29 02:03:31;;;;;;;22.52;20.33;;;;;;;7.41;100.00;102930.91;10500856;28;20055;-59
2022/04/29 02:08:34;;;;;;;19.90;17.35;;;;;;;7.54;100.00;102916.03;10500559;28;20132;-58
2022/04/29 02:13:37;;;;;;;17.42;15.57;;;;;;;7.58;100.00;102917.72;10500515;28;20052;-59
2022/04/29 02:18:40;;;;;;;17.95;14.90;;;;;;;7.33;100.00;102918.00;10500277;28;20047;-58
2022/04/29 02:23:43;;;;;;;17.27;12.98;;;;;;;7.27;100.00;102911.97;10500078;28;20044;-58
2022/04/29 02:28:45;;;;;;;15.77;14.07;;;;;;;7.09;100.00;102918.22;10499812;28;20059;-58
2022/04/29 02:33:48;;;;;;;18.10;12.98;;;;;;;7.07;100.00;102919.06;10499638;28;20051;-59
2022/04/29 02:38:50;;;;;;;14.63;11.82;;;;;;;7.07;100.00;102918.22;10498338;28;20049;-58
2022/04/29 02:43:52;;;;;;;17.67;12.32;;;;;;;7.24;100.00;102915.44;10498695;28;20062;-58
2022/04/29 02:48:54;;;;;;;13.32;11.45;;;;;;;7.18;100.00;102918.13;10499098;28;20047;-58
2022/04/29 02:53:57;;;;;;;16.48;12.15;;;;;;;6.91;100.00;102914.88;10497108;28;20051;-59
2022/04/29 02:58:59;;;;;;;21.13;19.08;;;;;;;6.60;100.00;102907.28;10498954;28;20040;-58
2022/04/29 03:04:02;;;;;;;26.98;12.82;;;;;;;6.78;100.00;102908.91;10498822;28;20064;-58
2022/04/29 03:09:05;;;;;;;21.13;12.45;;;;;;;6.80;100.00;102907.16;10496873;28;20056;-58
2022/04/29 03:14:07;;;;;;;17.13;14.07;;;;;;;6.72;100.00;102895.91;10496952;28;20060;-58
2022/04/29 03:19:10;;;;;;;26.38;15.00;;;;;;;7.09;100.00;102902.56;10498585;28;20049;-58
2022/04/29 03:24:12;;;;;;;21.38;13.52;;;;;;;7.07;100.00;102908.66;10497810;28;20510;-58
2022/04/29 03:29:15;;;;;;;23.17;12.93;;;;;;;6.64;100.00;102897.72;10497648;28;20495;-58
2022/04/29 03:34:18;;;;;;;19.00;13.38;;;;;;;6.80;100.00;102890.66;10498241;28;20083;-58
2022/04/29 03:39:20;;;;;;;19.02;14.30;;;;;;;6.69;100.00;102888.13;10497472;28;20476;-58
2022/04/29 03:44:22;;;;;;;22.63;17.27;;;;;;;6.56;100.00;102881.31;10497241;28;20407;-58
2022/04/29 03:49:37;;;;;;;24.02;17.58;;;;;;;6.50;100.00;102883.06;10497716;28;20416;-58
2022/04/29 03:54:40;;;;;;;24.73;22.08;;;;;;;6.70;100.00;102880.31;10497865;28;20132;-58
2022/04/29 03:59:42;;;;;;;31.75;25.35;;;;;;;6.76;100.00;102879.41;10497066;28;20050;-58
2022/04/29 04:04:46;;;;;;;23.98;21.58;;;;;;;6.63;100.00;102855.22;10501071;28;20056;-58
2022/04/29 04:09:48;;;;;;;24.15;21.75;;;;;;;6.93;100.00;102847.16;10505304;28;20040;-58
2022/04/29 04:14:51;;;;;;;22.13;19.67;;;;;;;6.99;100.00;102865.31;10504776;28;20049;-58
2022/04/29 04:19:53;;;;;;;33.67;30.60;;;;;;;6.79;100.00;102870.72;10504930;28;20045;-58
2022/04/29 04:24:58;;;;;;;36.53;32.95;;;;;;;6.64;100.00;102862.16;10504170;28;20079;-58
2022/04/29 04:30:01;;;;;;;42.35;38.78;;;;;;;6.66;100.00;102868.22;10504544;28;20054;-58
2022/04/29 04:35:05;;;;;;;54.72;50.60;;;;;;;6.81;100.00;102876.78;10504453;28;20048;-58
2022/04/29 04:40:08;;;;;;;62.53;58.13;;;;;;;6.86;100.00;102875.00;10503709;28;20056;-58
2022/04/29 04:45:11;;;;;;;58.45;54.35;;;;;;;6.72;100.00;102866.44;10504118;28;20060;-58
2022/04/29 04:50:14;;;;;;;79.13;73.57;;;;;;;6.65;100.00;102866.47;10503855;28;20052;-58
2022/04/29 04:55:17;;;;;;;68.45;63.28;;;;;;;6.97;100.00;102870.53;10503071;28;20479;-59
2022/04/29 05:00:19;;;;;;;57.97;53.55;;;;;;;7.23;100.00;102883.34;10502889;28;20048;-58
2022/04/29 05:05:21;;;;;;;80.22;74.30;;;;;;;6.94;100.00;102873.16;10503393;28;20056;-58
2022/04/29 05:10:24;;;;;;;91.07;85.40;;;;;;;7.05;100.00;102863.53;10502951;28;20403;-58
2022/04/29 05:15:26;;;;;;;84.97;78.90;;;;;;;7.24;100.00;102866.81;10502944;28;20048;-58
2022/04/29 05:20:28;;;;;;;79.90;74.90;;;;;;;7.30;100.00;102868.50;10502807;28;20053;-58
2022/04/29 05:25:31;;;;;;;88.97;83.22;;;;;;;7.22;100.00;102876.38;10502082;28;20052;-58
2022/04/29 05:30:33;;;;;;;95.22;89.32;;;;;;;7.34;100.00;102872.78;10502340;28;20044;-58
2022/04/29 05:35:36;;;;;;;88.40;83.03;;;;;;;7.13;100.00;102886.91;10502169;28;20067;-58
2022/04/29 05:45:59;;;;;;;79.18;74.05;;;;;;;7.40;100.00;102877.94;10501812;28;20056;-58
2022/04/29 05:51:02;;;;;;;89.95;84.30;;;;;;;7.37;100.00;102882.31;10501370;28;20049;-58
2022/04/29 05:56:04;;;;;;;96.95;90.22;;;;;;;7.46;100.00;102881.38;10501349;28;20055;-58
2022/04/29 06:01:07;;;;;;;98.82;92.28;;;;;;;7.43;100.00;102884.84;10500909;28;20047;-58
2022/04/29 06:06:09;;;;;;;83.47;77.40;;;;;;;7.61;100.00;102882.03;10500709;28;20078;-58
2022/04/29 06:11:11;;;;;;;97.10;90.75;;;;;;;7.71;100.00;102895.84;10500573;28;20051;-58
2022/04/29 06:16:14;;;;;;;101.13;94.43;;;;;;;7.73;100.00;102891.50;10500631;28;20059;-58
2022/04/29 06:21:18;;;;;;;101.60;95.05;;;;;;;7.84;100.00;102883.53;10499032;28;20048;-58
2022/04/29 06:26:20;;;;;;;87.40;82.18;;;;;;;8.05;100.00;102886.72;10499817;28;20128;-58
2022/04/29 06:31:23;;;;;;;87.07;81.68;;;;;;;8.23;100.00;102883.00;10499994;28;20055;-58
2022/04/29 06:36:25;;;;;;;90.97;85.07;;;;;;;8.39;100.00;102881.91;10498959;28;20523;-58
2022/04/29 06:41:28;;;;;;;112.72;105.32;;;;;;;8.65;100.00;102889.34;10498985;28;20052;-58
2022/04/29 06:46:30;;;;;;;80.95;75.55;;;;;;;8.14;100.00;102895.28;10498302;28;20048;-58
2022/04/29 06:51:33;;;;;;;81.15;75.97;;;;;;;8.24;100.00;102895.16;10499192;28;20048;-58
2022/04/29 06:56:35;;;;;;;71.38;66.82;;;;;;;8.18;100.00;102902.19;10513813;28;20504;-58
2022/04/29 07:01:37;;;;;;;95.18;89.20;;;;;;;8.48;100.00;102897.44;10499085;28;20138;-58
2022/04/29 07:06:40;;;;;;;71.00;66.50;;;;;;;8.17;100.00;102910.91;10499016;28;20058;-58
2022/04/29 07:11:42;;;;;;;72.35;67.10;;;;;;;8.17;100.00;102905.69;10498703;28;20045;-58
2022/04/29 07:16:45;;;;;;;78.07;72.72;;;;;;;8.85;100.00;102904.72;10498642;28;20045;-58
2022/04/29 07:21:47;;;;;;;58.92;54.70;;;;;;;9.13;100.00;102892.91;10498562;28;20101;-58
2022/04/29 07:26:50;;;;;;;28.00;24.70;;;;;;;9.26;97.09;102892.69;10498035;28;20430;-58
2022/04/29 07:31:52;;;;;;;32.72;29.65;;;;;;;9.37;99.05;102894.25;10498491;28;20048;-58
2022/04/29 07:42:16;;;;;;;24.30;18.65;;;;;;;9.74;98.55;102909.22;10505630;28;20055;-58
2022/04/29 07:47:18;;;;;;;16.40;13.73;;;;;;;9.21;96.40;102906.72;10506438;28;20044;-58
2022/04/29 07:52:20;;;;;;;20.20;13.90;;;;;;;10.78;91.49;102908.69;10505532;28;20075;-58
2022/04/29 07:57:23;;;;;;;22.55;13.57;;;;;;;10.54;90.24;102900.50;10505515;28;20408;-58
2022/04/29 08:02:25;;;;;;;23.95;15.02;;;;;;;10.69;91.04;102896.66;10505249;28;20575;-58
2022/04/29 08:07:28;;;;;;;23.75;19.75;;;;;;;11.00;88.44;102906.38;10504977;28;20060;-58
2022/04/29 08:12:30;;;;;;;25.08;22.35;;;;;;;11.18;87.77;102912.03;10504712;28;20400;-58
2022/04/29 08:17:32;;;;;;;42.70;39.55;;;;;;;10.58;90.48;102904.75;10505217;28;20049;-58
2022/04/29 08:22:36;;;;;;;39.72;36.20;;;;;;;10.38;91.68;102907.00;10504992;28;20047;-58
2022/04/29 08:27:38;;;;;;;44.17;40.53;;;;;;;11.19;88.58;102904.13;10504773;28;20052;-59
2022/04/29 08:32:43;;;;;;;47.08;43.90;;;;;;;11.96;86.56;102906.41;10520250;28;20048;-59
2022/04/29 08:37:45;;;;;;;85.97;80.75;;;;;;;11.92;85.12;102900.41;10503853;28;20066;-59
2022/04/29 08:42:48;;;;;;;115.22;108.95;;;;;;;10.82;88.02;102907.69;10502468;28;20377;-59
2022/04/29 08:47:50;;;;;;;110.95;103.78;;;;;;;12.06;84.03;102903.44;10504040;28;20067;-59
2022/04/29 08:52:54;;;;;;;130.43;123.20;;;;;;;12.19;82.38;102910.97;10503518;28;20052;-59
2022/04/29 09:03:22;;;;;;;162.02;153.52;;;;;;;12.97;81.78;102902.34;10503564;28;20049;-59
2022/04/29 09:08:25;;;;;;;164.60;155.63;;;;;;;12.94;82.62;102908.53;10503302;28;20098;-60
2022/04/29 09:13:29;;;;;;;212.43;201.90;;;;;;;12.97;81.33;102916.31;10502490;28;20048;-59
2022/04/29 09:18:45;;;;;;;233.18;221.60;;;;;;;13.17;80.51;102904.28;10503037;28;20057;-59
2022/04/29 09:24:00;;;;;;;226.27;214.82;;;;;;;12.47;83.23;102904.84;10502759;28;20052;-59
2022/04/29 09:29:17;;;;;;;264.75;251.75;;;;;;;13.41;78.90;102904.34;10500922;28;20519;-59
2022/04/29 09:34:23;;;;;;;314.17;298.42;;;;;;;12.92;78.21;102910.38;10501727;28;20075;-59
2022/04/29 09:39:30;;;;;;;409.42;385.52;;;;;;;12.79;77.73;102914.31;10501674;28;20395;-60
2022/04/29 09:44:34;;;;;;;343.48;326.70;;;;;;;14.09;73.81;102893.03;10501214;28;20516;-59
2022/04/29 09:49:37;;;;;;;373.15;354.48;;;;;;;14.25;71.63;102895.06;10500956;28;20509;-59
2022/04/29 09:54:39;;;;;;;379.05;360.30;;;;;;;14.05;73.27;102896.69;10500818;28;20380;-59
2022/04/29 09:59:58;;;;;;;395.02;375.30;;;;;;;14.13;72.60;102883.22;10467861;22;20057;-60
2022/04/29 10:05:01;;;;;;;510.05;477.23;;;;;;;14.27;69.08;102885.31;10458438;28;20052;-61
2022/04/29 10:10:05;;;;;;;403.40;383.33;;;;;;;13.85;70.86;102878.16;10459333;28;20081;-60
2022/04/29 10:15:16;;;;;;;381.95;362.95;;;;;;;13.21;74.19;102882.19;10459347;28;20053;-60
2022/04/29 10:25:45;;;;;;;402.08;382.40;;;;;;;14.80;69.11;102870.88;10458970;28;20049;-60
2022/04/29 10:30:52;;;;;;;408.05;387.83;;;;;;;13.89;68.99;102874.50;10458696;28;20053;-60
2022/04/29 10:35:56;;;;;;;385.08;365.52;;;;;;;13.44;69.12;102876.16;10456757;28;20053;-60
2022/04/29 10:41:18;;;;;;;394.70;375.40;;;;;;;13.75;71.07;102867.13;10457915;28;20483;-60
2022/04/29 10:46:36;;;;;;;398.00;377.58;;;;;;;14.68;68.75;102880.19;10458216;28;20060;-60
2022/04/29 10:51:49;;;;;;;387.90;368.50;;;;;;;14.36;69.04;102870.94;10456253;28;20136;-60
2022/04/29 10:57:04;;;;;;;398.58;379.02;;;;;;;13.85;71.58;102863.25;10457458;28;20052;-60
2022/04/29 11:02:13;;;;;;;400.45;380.20;;;;;;;14.18;70.65;102854.06;10457877;28;20095;-60
2022/04/29 11:07:39;;;;;;;396.75;376.92;;;;;;;14.31;72.10;102857.94;10456937;28;20463;-60
2022/04/29 11:12:54;;;;;;;388.23;368.77;;;;;;;14.42;72.00;102858.34;10456545;28;20403;-60
2022/04/29 11:18:14;;;;;;;398.50;378.60;;;;;;;14.41;72.54;102854.00;10457254;28;20052;-60
2022/04/29 11:28:54;;;;;;;390.85;371.52;;;;;;;14.52;73.35;102843.00;10455980;28;20045;-60
2022/04/29 11:34:08;;;;;;;383.85;362.48;;;;;;;13.55;73.98;102844.19;10456917;28;20053;-60
2022/04/29 11:39:15;;;;;;;389.30;369.88;;;;;;;14.34;73.67;102849.03;10456185;28;20404;-61
2022/04/29 11:44:22;;;;;;;422.45;398.08;;;;;;;14.43;71.98;102843.41;10456816;28;20098;-60
2022/04/29 11:49:34;;;;;;;391.60;372.25;;;;;;;14.27;73.10;102835.25;10456623;28;20041;-60
2022/04/29 11:54:54;;;;;;;388.45;369.27;;;;;;;14.39;71.68;102833.88;10456603;28;20052;-61
2022/04/29 11:59:57;;;;;;;390.33;371.05;;;;;;;14.11;71.53;102832.38;10456488;28;20144;-60
2022/04/29 12:05:02;;;;;;;381.00;361.98;;;;;;;14.30;71.28;102832.50;10455720;28;20478;-60
2022/04/29 12:10:23;;;;;;;386.55;367.65;;;;;;;14.33;69.72;102835.00;10454355;28;20049;-60
2022/04/29 12:15:28;;;;;;;380.83;360.77;;;;;;;14.63;68.15;102839.97;10455527;28;20377;-60
2022/04/29 12:20:30;;;;;;;364.30;346.10;;;;;;;14.48;68.06;102842.28;10454237;28;20044;-61
2022/04/29 12:25:39;;;;;;;366.15;348.60;;;;;;;14.64;69.21;102832.00;10458988;28;20059;-60
2022/04/29 12:36:15;;;;;;;358.70;340.77;;;;;;;14.30;68.54;102832.50;10463316;28;20053;-60
2022/04/29 12:41:27;;;;;;;346.58;329.55;;;;;;;15.08;62.17;102830.13;10462395;28;20092;-60
2022/04/29 12:46:30;;;;;;;361.00;343.35;;;;;;;14.42;68.08;102828.50;10462689;28;20053;-60
2022/04/29 12:51:36;;;;;;;329.17;313.23;;;;;;;14.46;64.64;102822.19;10462497;28;20110;-60
2022/04/29 12:56:40;;;;;;;348.17;331.38;;;;;;;16.32;60.62;102807.63;10461776;28;20491;-60
2022/04/29 13:01:42;;;;;;;296.55;282.23;;;;;;;15.57;57.85;102812.94;10461546;28;20045;-60
2022/04/29 13:06:45;;;;;;;328.55;313.08;;;;;;;17.93;56.61;102798.25;10461988;28;20053;-60
2022/04/29 13:11:48;;;;;;;281.38;267.77;;;;;;;18.26;54.14;102799.91;10461716;28;20056;-60
2022/04/29 13:16:50;;;;;;;286.45;272.80;;;;;;;19.44;54.10;102783.06;10459820;28;20526;-60
2022/04/29 13:21:53;;;;;;;236.13;222.95;;;;;;;17.19;53.70;102769.66;10461445;28;20056;-61
2022/04/29 13:26:55;;;;;;;204.07;194.30;;;;;;;18.91;52.58;102762.44;10461244;28;20053;-60
2022/04/29 13:31:57;;;;;;;184.40;175.40;;;;;;;18.22;54.16;102763.03;10460379;28;20488;-60
2022/04/29 13:37:00;;;;;;;149.90;142.52;;;;;;;18.14;50.68;102766.13;10458986;28;20569;-60
2022/04/29 13:42:02;;;;;;;121.38;114.85;;;;;;;18.26;50.61;102764.59;10460076;28;20381;-61
2022/04/29 13:47:05;;;;;;;130.73;123.72;;;;;;;18.94;50.80;102759.56;10460636;28;20052;-61
2022/04/29 13:57:28;;;;;;;85.55;80.90;;;;;;;18.36;49.18;102763.09;10459631;28;20060;-60
2022/04/29 14:02:31;;;;;;;85.32;80.57;;;;;;;19.24;49.55;102750.63;10459877;28;20059;-61
2022/04/29 14:07:36;;;;;;;84.75;80.22;;;;;;;17.61;52.28;102750.53;10459658;28;20059;-61
2022/04/29 14:12:39;;;;;;;85.78;80.72;;;;;;;17.56;53.34;102749.09;10459402;28;20053;-60
2022/04/29 14:17:41;;;;;;;86.75;82.15;;;;;;;17.76;52.31;102743.53;10459193;28;20049;-61
2022/04/29 14:22:47;;;;;;;78.55;74.18;;;;;;;17.60;52.23;102734.75;10458602;28;20507;-60
2022/04/29 14:27:51;;;;;;;77.03;72.28;;;;;;;16.37;52.24;102736.88;10458967;28;20052;-61
2022/04/29 14:32:56;;;;;;;83.15;78.72;;;;;;;17.99;51.89;102728.16;10457970;28;20407;-60
2022/04/29 14:37:59;;;;;;;77.15;72.93;;;;;;;17.20;53.78;102727.25;10458560;28;20063;-61
2022/04/29 14:43:01;;;;;;;82.28;76.93;;;;;;;17.16;54.04;102728.31;10457654;28;20411;-60
2022/04/29 14:48:04;;;;;;;95.10;89.90;;;;;;;17.58;54.23;102720.72;10456046;28;20071;-60
2022/04/29 14:53:06;;;;;;;89.55;84.85;;;;;;;16.68;54.22;102722.06;10457888;28;20049;-60
2022/04/29 14:58:08;;;;;;;71.85;67.80;;;;;;;17.03;53.03;102722.00;10456413;28;20065;-60
2022/04/29 15:03:11;;;;;;;74.43;70.53;;;;;;;17.19;53.46;102719.38;10457766;28;20056;-60
2022/04/29 15:08:13;;;;;;;71.82;67.45;;;;;;;17.16;54.48;102724.84;10457997;28;20057;-60
2022/04/29 15:18:36;;;;;;;78.57;74.07;;;;;;;16.06;56.22;102721.72;10457368;28;20060;-61
2022/04/29 15:23:38;;;;;;;76.75;72.32;;;;;;;15.82;56.19;102713.22;10455267;28;20389;-60
2022/04/29 15:28:41;;;;;;;82.00;77.85;;;;;;;16.24;56.71;102722.56;10456901;28;20052;-60
2022/04/29 15:33:45;;;;;;;77.38;73.28;;;;;;;16.27;56.50;102717.13;10457520;28;20048;-60
2022/04/29 15:38:47;;;;;;;81.68;77.43;;;;;;;16.34;56.55;102719.41;10456356;28;20131;-60
2022/04/29 15:43:49;;;;;;;88.53;83.68;;;;;;;15.38;57.75;102730.22;10456714;28;20045;-60
2022/04/29 15:48:52;;;;;;;86.00;81.57;;;;;;;14.80;58.38;102720.59;10456550;28;20056;-61
2022/04/29 15:53:54;;;;;;;92.57;87.88;;;;;;;15.63;58.35;102714.09;10455897;28;20511;-61
2022/04/29 15:58:57;;;;;;;91.57;86.88;;;;;;;15.86;57.40;102715.63;10456907;28;20068;-61
2022/04/29 16:03:59;;;;;;;96.25;91.15;;;;;;;15.12;59.74;102713.84;10464550;28;20151;-61
2022/04/29 16:09:02;;;;;;;111.57;105.47;;;;;;;15.22;60.29;102711.63;10464240;28;20076;-61
2022/04/29 16:14:04;;;;;;;84.80;80.30;;;;;;;14.93;58.42;102702.41;10464713;28;20044;-61
2022/04/29 16:29:49;;;;;;;79.80;75.80;;;;;;;15.67;56.75;102702.47;10463581;28;20094;-61
2022/04/29 16:34:51;;;;;;;97.60;92.38;;;;;;;15.12;60.03;102697.16;10463350;28;20056;-61
2022/04/29 16:39:53;;;;;;;91.80;87.13;;;;;;;14.95;57.85;102690.03;10463134;28;20045;-61
2022/04/29 16:44:57;;;;;;;100.53;95.40;;;;;;;14.79;60.10;102695.13;10462984;28;20053;-60
2022/04/29 16:49:59;;;;;;;113.88;108.03;;;;;;;14.61;61.48;102696.84;10462696;28;20052;-61
2022/04/29 16:55:02;;;;;;;132.90;126.45;;;;;;;14.86;62.34;102697.44;10462463;28;20048;-60
2022/04/29 17:00:05;;;;;;;101.65;96.57;;;;;;;13.97;60.82;102696.00;10461613;28;20060;-61
2022/04/29 17:05:08;;;;;;;125.93;119.32;;;;;;;13.70;62.64;102703.22;10462191;28;20068;-61
2022/04/29 17:10:10;;;;;;;119.78;113.47;;;;;;;14.04;62.06;102696.59;10461604;28;20052;-61
2022/04/29 17:15:13;;;;;;;118.80;112.63;;;;;;;13.96;61.56;102693.44;10461986;28;20060;-61
2022/04/29 17:20:15;;;;;;;132.77;126.18;;;;;;;13.91;62.27;102697.09;10461618;28;20052;-61
2022/04/29 17:25:18;;;;;;;129.93;123.40;;;;;;;13.56;63.32;102702.00;10461453;28;20053;-61
2022/04/29 17:30:20;;;;;;;147.30;139.43;;;;;;;13.12;65.45;102696.66;10460599;28;20404;-60
2022/04/29 17:35:23;;;;;;;156.48;148.60;;;;;;;12.73;67.19;102697.25;10476324;28;20381;-60
2022/04/29 17:45:46;;;;;;;183.57;174.73;;;;;;;12.08;71.35;102696.84;10460717;28;20045;-60
2022/04/29 17:50:49;;;;;;;180.15;171.38;;;;;;;12.77;67.64;102700.59;10460251;28;20131;-61
2022/04/29 17:55:51;;;;;;;189.93;180.43;;;;;;;12.33;68.78;102703.03;10459402;28;20389;-61
2022/04/29 18:00:54;;;;;;;214.63;204.30;;;;;;;11.98;70.15;102710.34;10459991;28;20052;-60
2022/04/29 18:05:57;;;;;;;211.52;201.25;;;;;;;11.67;72.20;102714.78;10459206;28;20447;-60
2022/04/29 18:11:00;;;;;;;200.30;190.13;;;;;;;12.21;69.28;102714.84;10459507;28;20049;-61
2022/04/29 18:16:03;;;;;;;202.15;192.25;;;;;;;12.21;69.70;102714.84;10458434;28;20055;-60
2022/04/29 18:21:05;;;;;;;222.40;211.93;;;;;;;12.06;70.49;102709.16;10458565;28;20128;-61
2022/04/29 18:26:09;;;;;;;214.77;204.27;;;;;;;11.70;69.65;102721.66;10458525;28;20049;-60
2022/04/29 18:31:11;;;;;;;217.35;206.88;;;;;;;11.52;70.57;102726.59;10474146;28;20056;-60
2022/04/29 18:36:13;;;;;;;222.43;211.60;;;;;;;11.46;70.70;102744.28;10459231;28;20053;-60
2022/04/29 18:41:16;;;;;;;220.70;209.38;;;;;;;11.35;70.58;102747.25;10458187;28;20507;-60
2022/04/29 18:46:18;;;;;;;236.15;224.95;;;;;;;10.63;73.72;102755.34;10458246;28;20056;-60
2022/04/29 18:51:21;;;;;;;237.73;226.13;;;;;;;10.49;75.44;102762.69;10457359;28;20452;-60
2022/04/29 18:56:23;;;;;;;241.75;230.18;;;;;;;10.75;74.69;102770.72;10457590;28;20067;-60
2022/04/29 19:01:25;;;;;;;240.05;228.52;;;;;;;10.69;73.04;102773.53;10457590;28;20419;-60
2022/04/29 19:06:28;;;;;;;246.93;235.20;;;;;;;10.40;74.71;102775.13;10457607;28;20113;-60
2022/04/29 19:11:30;;;;;;;247.60;235.60;;;;;;;10.47;74.94;102774.97;10457314;28;20052;-60
2022/04/29 19:16:33;;;;;;;254.73;242.45;;;;;;;10.37;75.94;102787.44;10457338;28;20049;-60
2022/04/29 19:21:36;;;;;;;252.07;240.00;;;;;;;10.21;76.55;102785.16;10457191;28;20048;-60
2022/04/29 19:26:38;;;;;;;253.05;240.90;;;;;;;10.06;77.95;102787.28;10456540;28;20044;-60
2022/04/29 19:31:43;;;;;;;258.17;245.98;;;;;;;10.20;76.78;102798.28;10456967;28;20048;-60
2022/04/29 19:36:45;;;;;;;274.65;261.67;;;;;;;9.61;79.87;102796.97;10463585;28;20072;-60
2022/04/29 19:41:47;;;;;;;277.92;264.58;;;;;;;9.62;80.10;102793.47;10465454;28;20049;-60
2022/04/29 19:46:50;;;;;;;281.80;268.23;;;;;;;9.64;79.51;102806.53;10465256;28;20053;-60
2022/04/29 19:51:52;;;;;;;282.88;269.55;;;;;;;9.73;78.71;102811.53;10464334;28;20408;-60
2022/04/29 20:07:57;;;;;;;294.87;280.70;;;;;;;9.62;79.69;102816.16;10463877;28;20056;-60
2022/04/29 20:12:59;;;;;;;321.92;307.05;;;;;;;9.10;83.55;102813.69;10464162;28;20056;-60
2022/04/29 20:18:01;;;;;;;321.45;306.45;;;;;;;9.23;83.21;102819.56;10479395;28;20045;-60
2022/04/29 20:23:04;;;;;;;314.25;299.42;;;;;;;8.90;86.35;102829.72;10463834;28;20124;-60
2022/04/29 20:28:08;;;;;;;314.38;299.48;;;;;;;8.91;85.98;102836.69;10462980;28;20057;-60
2022/04/29 20:33:12;;;;;;;321.65;306.25;;;;;;;8.96;86.79;102828.78;10463385;28;20041;-60
2022/04/29 20:38:14;;;;;;;317.00;301.98;;;;;;;9.09;85.86;102830.28;10462584;28;20377;-60
2022/04/29 20:48:58;;;;;;;318.00;303.02;;;;;;;8.90;85.49;102837.56;10375536;28;20046;-60
2022/04/29 20:54:03;;;;;;;314.77;299.38;;;;;;;8.76;87.55;102841.31;10443136;28;20053;-60
2022/04/29 20:59:05;;;;;;;308.88;294.27;;;;;;;8.83;88.12;102845.56;10462173;28;20087;-60
2022/04/29 21:04:08;;;;;;;314.90;299.88;;;;;;;8.77;90.21;102851.72;10462292;28;20049;-60
2022/04/29 21:09:10;;;;;;;321.83;306.50;;;;;;;8.54;90.25;102849.53;10461445;28;20450;-60
2022/04/29 21:14:13;;;;;;;318.67;303.58;;;;;;;8.40;91.89;102839.25;10461816;28;20056;-60
2022/04/29 21:19:16;;;;;;;303.73;289.27;;;;;;;8.41;91.76;102845.34;10461003;28;20059;-60
2022/04/29 21:24:18;;;;;;;311.20;296.50;;;;;;;8.44;92.55;102846.19;10460635;28;20476;-60
2022/04/29 21:34:41;;;;;;;299.08;284.45;;;;;;;8.63;91.00;102851.97;10460099;28;20056;-60
2022/04/29 21:39:44;;;;;;;311.00;296.50;;;;;;;8.45;91.52;102857.47;10460780;28;20060;-60
2022/04/29 21:44:47;;;;;;;293.27;279.08;;;;;;;8.46;90.83;102848.78;10460676;28;20056;-60
2022/04/29 21:49:49;;;;;;;293.15;278.75;;;;;;;8.17;93.50;102855.28;10459732;28;20059;-60
2022/04/29 21:54:52;;;;;;;293.98;279.98;;;;;;;8.13;93.17;102851.81;10460258;28;20045;-60
2022/04/29 21:59:54;;;;;;;279.70;266.73;;;;;;;7.97;92.49;102855.53;10458833;28;20057;-60
2022/04/29 22:04:56;;;;;;;278.80;265.63;;;;;;;8.01;92.63;102854.59;10459153;28;20412;-60
2022/04/29 22:09:59;;;;;;;283.13;269.95;;;;;;;8.17;91.51;102860.50;10466990;22;20492;-58
2022/04/29 22:15:02;;;;;;;273.55;260.80;;;;;;;8.29;90.36;102857.69;10418068;28;20508;-57
2022/04/29 22:20:05;;;;;;;283.08;269.45;;;;;;;8.19;90.35;102866.53;10418155;28;20056;-57
2022/04/29 22:25:08;;;;;;;267.77;255.20;;;;;;;7.84;92.29;102867.88;10416732;28;20045;-57
2022/04/29 22:30:13;;;;;;;261.00;248.50;;;;;;;7.88;93.22;102866.94;10415891;28;20396;-55
2022/04/29 22:35:16;;;;;;;255.80;243.70;;;;;;;7.95;94.88;102852.94;10416901;28;20115;-57
2022/04/29 22:40:18;;;;;;;257.90;245.82;;;;;;;7.88;94.45;102855.66;10417287;28;20049;-57
2022/04/29 22:45:24;;;;;;;231.38;220.10;;;;;;;7.63;95.40;102854.22;10416540;28;20492;-57
2022/04/29 22:50:27;;;;;;;237.40;226.05;;;;;;;7.75;95.29;102857.53;10416911;28;20059;-57
2022/04/29 22:55:29;;;;;;;229.20;217.43;;;;;;;7.93;93.33;102853.84;10416801;28;20053;-57
2022/04/29 23:00:33;;;;;;;217.35;206.88;;;;;;;7.70;95.30;102852.41;10415990;28;20412;-57
2022/04/29 23:05:38;;;;;;;215.85;205.48;;;;;;;7.67;95.92;102856.81;10416487;28;20155;-57
2022/04/29 23:10:40;;;;;;;210.45;200.05;;;;;;;7.56;95.90;102862.97;10415140;28;20492;-56
2022/04/29 23:15:43;;;;;;;207.50;197.10;;;;;;;7.40;97.94;102854.50;10416227;28;20061;-57
2022/04/29 23:20:46;;;;;;;202.90;193.32;;;;;;;7.60;95.93;102850.81;10416040;28;20052;-57
2022/04/29 23:25:49;;;;;;;172.80;164.35;;;;;;;7.16;100.00;102855.63;10416540;28;20060;-57
2022/04/29 23:30:51;;;;;;;179.38;170.27;;;;;;;7.09;100.00;102846.13;10414607;28;20068;-57
2022/04/29 23:35:54;;;;;;;157.90;150.23;;;;;;;7.08;100.00;102849.63;10415791;28;20059;-56
2022/04/29 23:40:56;;;;;;;149.98;142.70;;;;;;;6.73;100.00;102858.63;10415771;28;20046;-57
2022/04/29 23:45:59;;;;;;;144.02;136.68;;;;;;;6.82;100.00;102849.84;10415535;28;20115;-56
2022/04/29 23:51:01;;;;;;;120.53;114.70;;;;;;;6.89;100.00;102861.94;10415392;28;20084;-56